createdAt,value
2017-03-22T00:04:27.734Z,0
2017-03-22T00:14:39.413Z,0
2017-03-22T00:24:51.108Z,0
2017-03-22T00:35:02.800Z,0
2017-03-22T00:45:14.487Z,0
2017-03-22T00:55:26.151Z,0
2017-03-22T01:05:37.801Z,0
2017-03-22T01:15:49.541Z,0
2017-03-22T01:26:01.314Z,0
2017-03-22T01:36:13.114Z,0
2017-03-22T01:46:24.924Z,0
2017-03-22T01:56:36.774Z,0
2017-03-22T02:06:48.601Z,0
2017-03-22T02:17:00.457Z,0
2017-03-22T02:27:12.339Z,0
2017-03-22T02:37:24.220Z,0
2017-03-22T02:47:36.047Z,0
2017-03-22T02:57:47.869Z,0
2017-03-22T03:07:59.788Z,0
2017-03-22T03:18:11.668Z,0
2017-03-22T03:28:23.540Z,0
2017-03-22T03:38:35.457Z,0
2017-03-22T03:48:47.377Z,0
2017-03-22T03:58:59.337Z,0
2017-03-22T04:09:11.309Z,0
2017-03-22T04:19:23.290Z,0
2017-03-22T04:29:35.261Z,0
2017-03-22T04:39:47.261Z,0
2017-03-22T04:49:59.245Z,0
2017-03-22T05:00:11.195Z,8
2017-03-22T05:10:23.212Z,44
2017-03-22T05:20:35.233Z,200
2017-03-22T05:30:47.192Z,532
2017-03-22T05:40:59.164Z,1032
2017-03-22T05:51:11.167Z,1684
2017-03-22T06:01:23.129Z,2848
2017-03-22T06:11:34.957Z,4304
2017-03-22T06:21:46.615Z,6188
2017-03-22T06:31:58.105Z,8804
2017-03-22T06:42:09.430Z,10888
2017-03-22T06:52:20.644Z,16928
2017-03-22T07:02:31.714Z,22240
2017-03-22T07:12:42.602Z,20864
2017-03-22T07:22:53.243Z,35968
2017-03-22T07:33:03.638Z,46592
2017-03-22T07:43:13.831Z,47840
2017-03-22T07:53:23.839Z,57696
2017-03-22T08:03:33.650Z,60128
2017-03-22T08:13:43.310Z,59136
2017-03-22T08:23:52.846Z,66112
2017-03-22T08:34:02.257Z,72992
2017-03-22T08:44:11.549Z,76896
2017-03-22T08:54:20.740Z,90688
2017-03-22T09:04:29.937Z,80864
2017-03-22T09:14:39.111Z,86240
2017-03-22T09:24:48.300Z,94752
2017-03-22T09:34:57.477Z,95264
2017-03-22T09:45:06.638Z,100096
2017-03-22T09:55:15.864Z,102784
2017-03-22T10:05:25.081Z,110784
2017-03-22T10:15:34.264Z,107904
2017-03-22T10:25:43.405Z,115008
2017-03-22T10:35:52.428Z,112832
2017-03-22T10:46:01.484Z,116640
2017-03-22T10:56:10.493Z,123520
2017-03-22T11:06:19.514Z,111968
2017-03-22T11:26:37.641Z,118048
2017-03-22T11:36:46.578Z,127968
2017-03-22T11:46:55.554Z,48992
2017-03-22T11:57:04.806Z,34400
2017-03-22T12:07:14.244Z,27936
2017-03-22T12:17:23.753Z,27904
2017-03-22T12:27:33.374Z,30688
2017-03-22T12:37:42.993Z,42752
2017-03-22T12:47:52.446Z,54560
2017-03-22T12:58:01.737Z,41888
2017-03-22T13:08:11.039Z,42336
2017-03-22T13:18:20.327Z,39904
2017-03-22T13:28:29.556Z,43104
2017-03-22T13:38:38.832Z,58208
2017-03-22T13:48:47.919Z,42016
2017-03-22T13:58:56.881Z,43360
2017-03-22T14:09:05.927Z,38144
2017-03-22T14:19:15.022Z,26432
2017-03-22T14:29:24.246Z,18592
2017-03-22T14:39:33.742Z,17152
2017-03-22T14:49:43.334Z,14672
2017-03-22T14:59:53.060Z,12796
2017-03-22T15:10:02.880Z,12924
2017-03-22T15:20:12.797Z,28096
2017-03-22T15:30:22.578Z,20384
2017-03-22T15:40:32.300Z,12776
2017-03-22T15:50:42.108Z,8236
2017-03-22T16:00:52.032Z,7064
2017-03-22T16:11:02.084Z,5572
2017-03-22T16:21:12.224Z,4744
2017-03-22T16:31:22.402Z,4632
2017-03-22T16:41:32.632Z,4264
2017-03-22T16:51:42.839Z,3048
2017-03-22T17:01:53.115Z,2332
2017-03-22T17:12:03.432Z,2252
2017-03-22T17:22:13.803Z,1732
2017-03-22T17:32:24.204Z,924
2017-03-22T17:42:34.644Z,392
2017-03-22T17:52:45.157Z,124
2017-03-22T18:02:55.716Z,28
2017-03-22T18:13:06.309Z,4
2017-03-22T18:23:16.968Z,0
2017-03-22T18:33:27.645Z,0
2017-03-22T18:43:38.336Z,0
2017-03-22T18:53:49.072Z,0
2017-03-22T19:03:59.828Z,0
2017-03-22T19:14:10.599Z,0
2017-03-22T19:24:21.470Z,0
2017-03-22T19:34:32.332Z,0
2017-03-22T19:44:43.161Z,0
2017-03-22T19:54:54.030Z,0
2017-03-22T20:05:04.899Z,0
2017-03-22T20:15:15.806Z,0
2017-03-22T20:25:26.669Z,0
2017-03-22T20:35:37.619Z,0
2017-03-22T20:45:48.626Z,0
2017-03-22T20:55:59.673Z,0
2017-03-22T21:06:10.751Z,0
2017-03-22T21:16:21.806Z,0
2017-03-22T21:26:32.931Z,0
2017-03-22T21:36:44.089Z,0
2017-03-22T21:46:55.309Z,0
2017-03-22T21:57:06.480Z,0
2017-03-22T22:07:17.720Z,0
2017-03-22T22:17:28.971Z,0
2017-03-22T22:27:40.179Z,0
2017-03-22T22:37:51.339Z,0
2017-03-22T22:48:02.489Z,0
2017-03-22T22:58:13.649Z,0
2017-03-22T23:08:24.807Z,0
2017-03-22T23:18:36.090Z,0
2017-03-22T23:28:47.264Z,0
2017-03-22T23:38:58.367Z,0
2017-03-22T23:49:09.506Z,0
2017-03-22T23:59:20.721Z,0
